Rechercher aéroport 
image banner adimage banner ad
image banner ad

SVIE - Teniente Coronel Andres Miguel Salazar Marcano

Situé à Isla De Coche, Venezuela

ICAO - SVIE, IATA -

Données fournies par Airmate  

Information générale

Coordonnées: N10°48'0" W63°59'18"
Élévation : 10 feet MSL.
 
Voir autres Aéroports à Nueva Esparta

Données opérationnelles

Accessible au public
Heure actuelle UTC:
Heure actuelle locale:
METAR: SVMG 261202Z AUTO 14003KT NCD 27/25 Q1014
TAF: TAF SVMG 261000Z 2612/2712 27003KT 9999 SCT016 TX33/2618Z TN23/2609Z BECMG 2616/2620 05006KT 9999 SCT016
Voir NOTAMs / SUP AIP / TFR affectant cet aéroport [VIEW]
Fréquences de communication: [VIEW]

Pistes:

Identifiant RWYQFULongueur (ft)Largeur (ft)SurfaceLDA (ft)
0987°393798ASP
27393798

Coordonnées de l'aéroport

Adresse: Isla De Coche Venezuela

Vue satellite de SVIE